sensor_id;sensor_type;location;lat;lon;timestamp;temperature;humidity
52611;DHT22;38727;40.130;18.292;2024-02-23T00:21:14;12.50;76.50
52611;DHT22;38727;40.130;18.292;2024-02-23T00:31:06;12.40;76.60
52611;DHT22;38727;40.130;18.292;2024-02-23T00:34:05;12.40;76.70
52611;DHT22;38727;40.130;18.292;2024-02-23T00:45:50;12.30;76.90
52611;DHT22;38727;40.130;18.292;2024-02-23T00:49:02;12.30;77.00
52611;DHT22;38727;40.130;18.292;2024-02-23T00:52:45;12.30;77.10
52611;DHT22;38727;40.130;18.292;2024-02-23T01:18:16;12.30;77.70
52611;DHT22;38727;40.130;18.292;2024-02-23T01:41:31;12.30;78.40
52611;DHT22;38727;40.130;18.292;2024-02-23T01:52:59;12.30;78.40
52611;DHT22;38727;40.130;18.292;2024-02-23T01:57:26;12.30;78.40
52611;DHT22;38727;40.130;18.292;2024-02-23T02:13:13;12.30;78.70
52611;DHT22;38727;40.130;18.292;2024-02-23T02:16:08;12.30;78.70
52611;DHT22;38727;40.130;18.292;2024-02-23T02:19:35;12.30;78.70
52611;DHT22;38727;40.130;18.292;2024-02-23T02:23:46;12.30;78.80
52611;DHT22;38727;40.130;18.292;2024-02-23T02:27:42;12.30;78.80
52611;DHT22;38727;40.130;18.292;2024-02-23T03:31:59;11.90;79.20
52611;DHT22;38727;40.130;18.292;2024-02-23T03:35:34;11.90;79.30
52611;DHT22;38727;40.130;18.292;2024-02-23T03:39:10;11.90;79.40
52611;DHT22;38727;40.130;18.292;2024-02-23T03:51:42;12.00;79.90
52611;DHT22;38727;40.130;18.292;2024-02-23T03:55:13;12.10;79.90
52611;DHT22;38727;40.130;18.292;2024-02-23T03:59:13;12.10;79.90
52611;DHT22;38727;40.130;18.292;2024-02-23T04:03:31;12.10;79.90
52611;DHT22;38727;40.130;18.292;2024-02-23T04:18:37;12.10;80.10
52611;DHT22;38727;40.130;18.292;2024-02-23T04:26:19;12.10;80.20
52611;DHT22;38727;40.130;18.292;2024-02-23T04:29:45;12.20;80.20
52611;DHT22;38727;40.130;18.292;2024-02-23T04:40:02;12.20;80.10
52611;DHT22;38727;40.130;18.292;2024-02-23T04:43:34;12.30;80.10
52611;DHT22;38727;40.130;18.292;2024-02-23T05:30:10;12.30;80.00
52611;DHT22;38727;40.130;18.292;2024-02-23T05:33:37;12.30;80.00
52611;DHT22;38727;40.130;18.292;2024-02-23T05:44:49;12.30;79.90
52611;DHT22;38727;40.130;18.292;2024-02-23T05:48:50;12.40;79.80
52611;DHT22;38727;40.130;18.292;2024-02-23T06:19:02;13.00;78.80
52611;DHT22;38727;40.130;18.292;2024-02-23T06:23:29;13.10;78.50
52611;DHT22;38727;40.130;18.292;2024-02-23T06:27:38;13.30;78.40
52611;DHT22;38727;40.130;18.292;2024-02-23T06:35:19;13.50;78.00
52611;DHT22;38727;40.130;18.292;2024-02-23T06:39:05;13.70;77.80
52611;DHT22;38727;40.130;18.292;2024-02-23T06:42:49;13.80;77.40
52611;DHT22;38727;40.130;18.292;2024-02-23T06:46:35;14.00;77.10
52611;DHT22;38727;40.130;18.292;2024-02-23T08:01:28;14.80;73.70
52611;DHT22;38727;40.130;18.292;2024-02-23T08:06:12;15.30;71.00
52611;DHT22;38727;40.130;18.292;2024-02-23T08:08:42;15.20;71.00
52611;DHT22;38727;40.130;18.292;2024-02-23T08:11:33;15.20;71.30
52611;DHT22;38727;40.130;18.292;2024-02-23T08:14:56;15.20;70.90
52611;DHT22;38727;40.130;18.292;2024-02-23T08:22:01;15.30;70.90
52611;DHT22;38727;40.130;18.292;2024-02-23T08:25:48;15.30;70.40
52611;DHT22;38727;40.130;18.292;2024-02-23T08:29:20;15.40;70.10
52611;DHT22;38727;40.130;18.292;2024-02-23T08:32:12;15.70;70.00
52611;DHT22;38727;40.130;18.292;2024-02-23T08:35:52;15.90;69.60
52611;DHT22;38727;40.130;18.292;2024-02-23T08:38:44;16.20;68.10
52611;DHT22;38727;40.130;18.292;2024-02-23T08:45:44;16.50;67.60
52611;DHT22;38727;40.130;18.292;2024-02-23T08:49:22;16.70;66.70
52611;DHT22;38727;40.130;18.292;2024-02-23T08:52:26;16.80;65.90
52611;DHT22;38727;40.130;18.292;2024-02-23T08:55:45;16.80;65.40
52611;DHT22;38727;40.130;18.292;2024-02-23T08:59:30;16.80;65.10
52611;DHT22;38727;40.130;18.292;2024-02-23T09:03:32;16.80;65.20
52611;DHT22;38727;40.130;18.292;2024-02-23T09:06:45;17.00;64.30
52611;DHT22;38727;40.130;18.292;2024-02-23T09:10:21;17.10;64.00
52611;DHT22;38727;40.130;18.292;2024-02-23T09:14:06;17.30;63.10
52611;DHT22;38727;40.130;18.292;2024-02-23T09:18:01;17.20;62.70
52611;DHT22;38727;40.130;18.292;2024-02-23T09:21:16;17.50;62.20
52611;DHT22;38727;40.130;18.292;2024-02-23T09:24:45;17.70;61.50
52611;DHT22;38727;40.130;18.292;2024-02-23T09:28:04;17.70;60.70
52611;DHT22;38727;40.130;18.292;2024-02-23T09:31:01;17.50;61.20
52611;DHT22;38727;40.130;18.292;2024-02-23T09:34:05;17.30;61.60
52611;DHT22;38727;40.130;18.292;2024-02-23T09:36:58;17.30;62.10
52611;DHT22;38727;40.130;18.292;2024-02-23T09:40:17;17.10;63.10
52611;DHT22;38727;40.130;18.292;2024-02-23T09:44:12;17.20;63.40
52611;DHT22;38727;40.130;18.292;2024-02-23T09:47:14;17.40;62.10
52611;DHT22;38727;40.130;18.292;2024-02-23T09:50:07;17.50;62.00
52611;DHT22;38727;40.130;18.292;2024-02-23T09:53:33;17.70;61.90
52611;DHT22;38727;40.130;18.292;2024-02-23T09:57:28;18.10;61.30
52611;DHT22;38727;40.130;18.292;2024-02-23T10:01:57;18.30;59.50
52611;DHT22;38727;40.130;18.292;2024-02-23T10:05:19;18.20;59.70
52611;DHT22;38727;40.130;18.292;2024-02-23T10:15:33;17.80;61.20
52611;DHT22;38727;40.130;18.292;2024-02-23T10:22:42;18.00;60.80
52611;DHT22;38727;40.130;18.292;2024-02-23T10:25:26;18.30;60.50
52611;DHT22;38727;40.130;18.292;2024-02-23T10:33:24;18.30;60.00
52611;DHT22;38727;40.130;18.292;2024-02-23T10:37:21;18.50;59.60
52611;DHT22;38727;40.130;18.292;2024-02-23T10:44:49;18.80;57.90
52611;DHT22;38727;40.130;18.292;2024-02-23T10:48:11;18.70;57.80
52611;DHT22;38727;40.130;18.292;2024-02-23T10:54:46;18.60;57.10
52611;DHT22;38727;40.130;18.292;2024-02-23T11:02:07;18.60;58.00
52611;DHT22;38727;40.130;18.292;2024-02-23T11:05:12;18.70;57.70
52611;DHT22;38727;40.130;18.292;2024-02-23T11:08:12;18.70;57.80
52611;DHT22;38727;40.130;18.292;2024-02-23T11:11:39;18.90;57.70
52611;DHT22;38727;40.130;18.292;2024-02-23T11:14:43;18.80;57.30
52611;DHT22;38727;40.130;18.292;2024-02-23T11:17:52;18.90;57.00
52611;DHT22;38727;40.130;18.292;2024-02-23T11:21:01;19.00;56.00
52611;DHT22;38727;40.130;18.292;2024-02-23T11:24:25;19.00;56.90
52611;DHT22;38727;40.130;18.292;2024-02-23T11:27:41;19.10;56.30
52611;DHT22;38727;40.130;18.292;2024-02-23T11:32:00;19.10;56.80
52611;DHT22;38727;40.130;18.292;2024-02-23T11:35:19;19.30;55.90
52611;DHT22;38727;40.130;18.292;2024-02-23T11:38:36;19.30;55.80
52611;DHT22;38727;40.130;18.292;2024-02-23T11:42:06;19.30;55.60
52611;DHT22;38727;40.130;18.292;2024-02-23T11:45:23;19.30;55.30
52611;DHT22;38727;40.130;18.292;2024-02-23T11:49:06;19.10;56.00
52611;DHT22;38727;40.130;18.292;2024-02-23T11:51:57;18.90;56.50
52611;DHT22;38727;40.130;18.292;2024-02-23T11:55:10;18.90;57.10
52611;DHT22;38727;40.130;18.292;2024-02-23T11:58:30;19.10;56.80
52611;DHT22;38727;40.130;18.292;2024-02-23T12:02:13;19.30;56.50
52611;DHT22;38727;40.130;18.292;2024-02-23T12:06:14;19.50;56.10
52611;DHT22;38727;40.130;18.292;2024-02-23T12:09:35;19.70;55.70
52611;DHT22;38727;40.130;18.292;2024-02-23T12:12:45;19.90;55.20
52611;DHT22;38727;40.130;18.292;2024-02-23T12:16:54;20.00;54.50
52611;DHT22;38727;40.130;18.292;2024-02-23T12:20:04;19.80;55.10
52611;DHT22;38727;40.130;18.292;2024-02-23T12:23:59;19.60;56.10
52611;DHT22;38727;40.130;18.292;2024-02-23T12:31:35;19.50;56.40
52611;DHT22;38727;40.130;18.292;2024-02-23T12:34:59;19.40;56.60
52611;DHT22;38727;40.130;18.292;2024-02-23T12:37:58;19.30;56.90
52611;DHT22;38727;40.130;18.292;2024-02-23T12:40:53;19.20;57.60
52611;DHT22;38727;40.130;18.292;2024-02-23T12:55:05;18.50;59.30
52611;DHT22;38727;40.130;18.292;2024-02-23T12:58:42;18.10;61.20
52611;DHT22;38727;40.130;18.292;2024-02-23T13:01:41;18.00;62.10
52611;DHT22;38727;40.130;18.292;2024-02-23T13:09:25;17.80;62.20
52611;DHT22;38727;40.130;18.292;2024-02-23T13:13:09;17.90;62.40
52611;DHT22;38727;40.130;18.292;2024-02-23T13:16:35;17.90;62.30
52611;DHT22;38727;40.130;18.292;2024-02-23T13:23:29;17.60;63.20
52611;DHT22;38727;40.130;18.292;2024-02-23T13:26:45;17.50;63.90
52611;DHT22;38727;40.130;18.292;2024-02-23T13:33:12;17.30;64.30
52611;DHT22;38727;40.130;18.292;2024-02-23T13:36:07;17.30;64.80
52611;DHT22;38727;40.130;18.292;2024-02-23T13:39:05;17.10;65.20
52611;DHT22;38727;40.130;18.292;2024-02-23T13:42:28;17.10;65.00
52611;DHT22;38727;40.130;18.292;2024-02-23T13:45:47;17.10;65.50
52611;DHT22;38727;40.130;18.292;2024-02-23T13:49:04;17.30;65.40
52611;DHT22;38727;40.130;18.292;2024-02-23T13:52:40;17.40;64.40
52611;DHT22;38727;40.130;18.292;2024-02-23T13:56:07;17.50;64.10
52611;DHT22;38727;40.130;18.292;2024-02-23T13:59:02;17.50;64.20
52611;DHT22;38727;40.130;18.292;2024-02-23T14:02:26;17.50;64.30
52611;DHT22;38727;40.130;18.292;2024-02-23T14:06:04;17.40;64.50
52611;DHT22;38727;40.130;18.292;2024-02-23T14:09:31;17.20;65.40
52611;DHT22;38727;40.130;18.292;2024-02-23T14:12:36;17.10;66.00
52611;DHT22;38727;40.130;18.292;2024-02-23T14:19:59;17.10;66.00
52611;DHT22;38727;40.130;18.292;2024-02-23T14:23:07;17.00;66.00
52611;DHT22;38727;40.130;18.292;2024-02-23T14:26:11;17.10;65.80
52611;DHT22;38727;40.130;18.292;2024-02-23T14:29:42;16.90;65.70
52611;DHT22;38727;40.130;18.292;2024-02-23T14:32:32;16.80;65.70
52611;DHT22;38727;40.130;18.292;2024-02-23T14:35:57;16.80;66.00
52611;DHT22;38727;40.130;18.292;2024-02-23T14:46:42;16.80;66.70
52611;DHT22;38727;40.130;18.292;2024-02-23T14:50:06;16.80;67.10
52611;DHT22;38727;40.130;18.292;2024-02-23T14:53:08;16.70;66.80
52611;DHT22;38727;40.130;18.292;2024-02-23T14:56:14;16.60;67.10
52611;DHT22;38727;40.130;18.292;2024-02-23T14:59:44;16.50;67.20
52611;DHT22;38727;40.130;18.292;2024-02-23T15:52:41;16.20;69.00
52611;DHT22;38727;40.130;18.292;2024-02-23T16:05:04;16.00;69.80
52611;DHT22;38727;40.130;18.292;2024-02-23T16:08:47;15.90;70.00
52611;DHT22;38727;40.130;18.292;2024-02-23T16:12:08;15.80;70.40
52611;DHT22;38727;40.130;18.292;2024-02-23T16:18:30;15.80;71.00
52611;DHT22;38727;40.130;18.292;2024-02-23T16:26:25;15.70;71.60
52611;DHT22;38727;40.130;18.292;2024-02-23T16:29:49;15.60;71.90
52611;DHT22;38727;40.130;18.292;2024-02-23T16:34:10;15.60;71.90
52611;DHT22;38727;40.130;18.292;2024-02-23T16:37:53;15.60;72.00
52611;DHT22;38727;40.130;18.292;2024-02-23T16:54:08;15.40;72.70
52611;DHT22;38727;40.130;18.292;2024-02-23T16:56:53;15.40;72.70
52611;DHT22;38727;40.130;18.292;2024-02-23T16:59:45;15.40;72.70
52611;DHT22;38727;40.130;18.292;2024-02-23T17:02:40;15.40;72.70
52611;DHT22;38727;40.130;18.292;2024-02-23T17:05:13;15.40;72.80
52611;DHT22;38727;40.130;18.292;2024-02-23T17:07:45;15.40;72.90
52611;DHT22;38727;40.130;18.292;2024-02-23T17:10:29;15.40;73.00
52611;DHT22;38727;40.130;18.292;2024-02-23T17:13:13;15.40;73.00
52611;DHT22;38727;40.130;18.292;2024-02-23T17:15:55;15.40;73.10
52611;DHT22;38727;40.130;18.292;2024-02-23T17:18:54;15.40;73.10
52611;DHT22;38727;40.130;18.292;2024-02-23T17:21:38;15.40;73.10
52611;DHT22;38727;40.130;18.292;2024-02-23T17:24:29;15.40;73.00
52611;DHT22;38727;40.130;18.292;2024-02-23T17:27:10;15.30;73.20
52611;DHT22;38727;40.130;18.292;2024-02-23T17:29:58;15.30;73.30
52611;DHT22;38727;40.130;18.292;2024-02-23T17:32:55;15.30;73.30
52611;DHT22;38727;40.130;18.292;2024-02-23T17:35:49;15.30;73.60
52611;DHT22;38727;40.130;18.292;2024-02-23T17:38:38;15.30;73.60
52611;DHT22;38727;40.130;18.292;2024-02-23T17:44:01;15.40;73.70
52611;DHT22;38727;40.130;18.292;2024-02-23T17:46:32;15.30;73.80
52611;DHT22;38727;40.130;18.292;2024-02-23T17:49:02;15.30;73.70
52611;DHT22;38727;40.130;18.292;2024-02-23T17:51:37;15.30;73.50
52611;DHT22;38727;40.130;18.292;2024-02-23T17:54:09;15.30;72.90
52611;DHT22;38727;40.130;18.292;2024-02-23T17:56:39;15.30;72.90
52611;DHT22;38727;40.130;18.292;2024-02-23T17:59:15;15.30;73.00
52611;DHT22;38727;40.130;18.292;2024-02-23T18:01:48;15.30;73.40
52611;DHT22;38727;40.130;18.292;2024-02-23T18:04:25;15.30;73.30
52611;DHT22;38727;40.130;18.292;2024-02-23T18:07:06;15.30;73.30
52611;DHT22;38727;40.130;18.292;2024-02-23T18:09:40;15.30;73.50
52611;DHT22;38727;40.130;18.292;2024-02-23T18:12:12;15.30;73.50
52611;DHT22;38727;40.130;18.292;2024-02-23T18:14:48;15.30;73.70
52611;DHT22;38727;40.130;18.292;2024-02-23T18:17:29;15.30;73.70
52611;DHT22;38727;40.130;18.292;2024-02-23T18:20:00;15.30;73.80
52611;DHT22;38727;40.130;18.292;2024-02-23T18:22:31;15.30;73.90
52611;DHT22;38727;40.130;18.292;2024-02-23T18:25:11;15.20;73.80
52611;DHT22;38727;40.130;18.292;2024-02-23T18:27:41;15.20;73.60
52611;DHT22;38727;40.130;18.292;2024-02-23T18:30:14;15.20;73.70
52611;DHT22;38727;40.130;18.292;2024-02-23T18:32:44;15.20;73.80
52611;DHT22;38727;40.130;18.292;2024-02-23T18:35:18;15.20;73.80
52611;DHT22;38727;40.130;18.292;2024-02-23T18:37:49;15.20;73.70
52611;DHT22;38727;40.130;18.292;2024-02-23T18:40:29;15.20;73.60
52611;DHT22;38727;40.130;18.292;2024-02-23T18:43:20;15.20;73.40
52611;DHT22;38727;40.130;18.292;2024-02-23T18:46:06;15.20;73.30
52611;DHT22;38727;40.130;18.292;2024-02-23T18:48:37;15.20;73.30
52611;DHT22;38727;40.130;18.292;2024-02-23T18:51:09;15.20;73.30
52611;DHT22;38727;40.130;18.292;2024-02-23T18:53:39;15.20;73.40
52611;DHT22;38727;40.130;18.292;2024-02-23T18:56:12;15.20;73.50
52611;DHT22;38727;40.130;18.292;2024-02-23T18:58:45;15.20;73.60
52611;DHT22;38727;40.130;18.292;2024-02-23T19:01:22;15.20;73.60
52611;DHT22;38727;40.130;18.292;2024-02-23T19:03:56;15.30;73.70
52611;DHT22;38727;40.130;18.292;2024-02-23T19:06:27;15.30;73.70
52611;DHT22;38727;40.130;18.292;2024-02-23T19:08:59;15.30;73.80
52611;DHT22;38727;40.130;18.292;2024-02-23T19:11:32;15.20;73.90
52611;DHT22;38727;40.130;18.292;2024-02-23T19:14:04;15.20;74.00
52611;DHT22;38727;40.130;18.292;2024-02-23T19:16:44;15.20;74.20
52611;DHT22;38727;40.130;18.292;2024-02-23T19:19:21;15.20;74.40
52611;DHT22;38727;40.130;18.292;2024-02-23T19:21:52;15.20;74.20
52611;DHT22;38727;40.130;18.292;2024-02-23T19:24:24;15.20;74.20
52611;DHT22;38727;40.130;18.292;2024-02-23T19:27:08;15.20;74.30
52611;DHT22;38727;40.130;18.292;2024-02-23T19:29:42;15.20;74.50
52611;DHT22;38727;40.130;18.292;2024-02-23T19:32:16;15.20;74.70
52611;DHT22;38727;40.130;18.292;2024-02-23T19:34:47;15.20;74.90
52611;DHT22;38727;40.130;18.292;2024-02-23T19:37:18;15.20;74.90
52611;DHT22;38727;40.130;18.292;2024-02-23T19:39:52;15.20;74.90
52611;DHT22;38727;40.130;18.292;2024-02-23T19:42:25;15.20;74.90
52611;DHT22;38727;40.130;18.292;2024-02-23T19:44:58;15.20;75.00
52611;DHT22;38727;40.130;18.292;2024-02-23T19:47:52;15.10;75.10
52611;DHT22;38727;40.130;18.292;2024-02-23T19:50:26;15.20;75.20
52611;DHT22;38727;40.130;18.292;2024-02-23T19:53:00;15.20;75.20
52611;DHT22;38727;40.130;18.292;2024-02-23T19:55:54;15.10;75.20
52611;DHT22;38727;40.130;18.292;2024-02-23T19:58:27;15.20;75.30
52611;DHT22;38727;40.130;18.292;2024-02-23T20:01:05;15.10;75.40
52611;DHT22;38727;40.130;18.292;2024-02-23T20:03:38;15.10;75.50
52611;DHT22;38727;40.130;18.292;2024-02-23T20:06:13;15.10;75.60
52611;DHT22;38727;40.130;18.292;2024-02-23T20:08:43;15.10;75.40
52611;DHT22;38727;40.130;18.292;2024-02-23T20:11:20;15.10;75.50
52611;DHT22;38727;40.130;18.292;2024-02-23T20:13:53;15.10;75.40
52611;DHT22;38727;40.130;18.292;2024-02-23T20:16:26;15.10;75.20
52611;DHT22;38727;40.130;18.292;2024-02-23T20:18:58;15.10;75.40
52611;DHT22;38727;40.130;18.292;2024-02-23T20:21:29;15.10;75.50
52611;DHT22;38727;40.130;18.292;2024-02-23T20:24:00;15.10;75.50
52611;DHT22;38727;40.130;18.292;2024-02-23T20:26:31;15.10;75.50
52611;DHT22;38727;40.130;18.292;2024-02-23T20:29:08;15.10;75.70
52611;DHT22;38727;40.130;18.292;2024-02-23T20:31:38;15.10;75.70
52611;DHT22;38727;40.130;18.292;2024-02-23T20:34:25;15.10;75.90
52611;DHT22;38727;40.130;18.292;2024-02-23T20:36:57;15.10;76.00
52611;DHT22;38727;40.130;18.292;2024-02-23T20:39:28;15.10;76.00
52611;DHT22;38727;40.130;18.292;2024-02-23T20:42:11;15.10;75.90
52611;DHT22;38727;40.130;18.292;2024-02-23T20:44:41;15.00;75.80
52611;DHT22;38727;40.130;18.292;2024-02-23T20:47:17;15.10;75.50
52611;DHT22;38727;40.130;18.292;2024-02-23T20:49:50;15.10;75.30
52611;DHT22;38727;40.130;18.292;2024-02-23T20:52:22;15.00;75.30
52611;DHT22;38727;40.130;18.292;2024-02-23T20:54:53;15.10;75.30
52611;DHT22;38727;40.130;18.292;2024-02-23T20:57:25;15.10;75.30
52611;DHT22;38727;40.130;18.292;2024-02-23T20:59:56;15.10;75.30
52611;DHT22;38727;40.130;18.292;2024-02-23T21:02:43;15.10;75.40
52611;DHT22;38727;40.130;18.292;2024-02-23T21:05:14;15.10;75.40
52611;DHT22;38727;40.130;18.292;2024-02-23T21:07:46;15.10;75.50
52611;DHT22;38727;40.130;18.292;2024-02-23T21:10:28;15.10;75.60
52611;DHT22;38727;40.130;18.292;2024-02-23T21:13:01;15.10;75.60
52611;DHT22;38727;40.130;18.292;2024-02-23T21:15:37;15.10;75.70
52611;DHT22;38727;40.130;18.292;2024-02-23T21:18:08;15.00;75.80
52611;DHT22;38727;40.130;18.292;2024-02-23T21:21:12;15.00;75.80
52611;DHT22;38727;40.130;18.292;2024-02-23T21:23:51;15.00;75.70
52611;DHT22;38727;40.130;18.292;2024-02-23T21:26:25;15.00;75.30
52611;DHT22;38727;40.130;18.292;2024-02-23T21:28:57;15.00;75.20
52611;DHT22;38727;40.130;18.292;2024-02-23T21:31:29;15.10;75.20
52611;DHT22;38727;40.130;18.292;2024-02-23T21:34:04;15.10;75.00
52611;DHT22;38727;40.130;18.292;2024-02-23T21:36:37;15.00;74.80
52611;DHT22;38727;40.130;18.292;2024-02-23T21:39:11;15.10;75.00
52611;DHT22;38727;40.130;18.292;2024-02-23T21:41:46;15.10;75.10
52611;DHT22;38727;40.130;18.292;2024-02-23T21:44:18;15.10;75.10
52611;DHT22;38727;40.130;18.292;2024-02-23T21:46:53;15.00;74.80
52611;DHT22;38727;40.130;18.292;2024-02-23T21:49:31;15.10;74.70
52611;DHT22;38727;40.130;18.292;2024-02-23T21:52:05;15.10;74.80
52611;DHT22;38727;40.130;18.292;2024-02-23T21:54:49;15.10;74.80
52611;DHT22;38727;40.130;18.292;2024-02-23T21:57:23;15.00;74.90
52611;DHT22;38727;40.130;18.292;2024-02-23T21:59:55;15.10;75.00
52611;DHT22;38727;40.130;18.292;2024-02-23T22:02:31;15.10;75.10
52611;DHT22;38727;40.130;18.292;2024-02-23T22:05:02;15.10;75.20
52611;DHT22;38727;40.130;18.292;2024-02-23T22:07:34;15.10;75.10
52611;DHT22;38727;40.130;18.292;2024-02-23T22:10:07;15.10;75.20
52611;DHT22;38727;40.130;18.292;2024-02-23T22:12:37;15.00;74.90
52611;DHT22;38727;40.130;18.292;2024-02-23T22:15:14;15.00;74.60
52611;DHT22;38727;40.130;18.292;2024-02-23T22:17:53;15.00;74.20
52611;DHT22;38727;40.130;18.292;2024-02-23T22:20:26;15.00;74.30
52611;DHT22;38727;40.130;18.292;2024-02-23T22:23:05;15.00;74.70
52611;DHT22;38727;40.130;18.292;2024-02-23T22:25:36;15.10;74.80
52611;DHT22;38727;40.130;18.292;2024-02-23T22:28:09;15.10;75.00
52611;DHT22;38727;40.130;18.292;2024-02-23T22:30:49;15.10;75.20
52611;DHT22;38727;40.130;18.292;2024-02-23T22:33:20;15.10;75.30
52611;DHT22;38727;40.130;18.292;2024-02-23T22:35:59;15.10;75.40
52611;DHT22;38727;40.130;18.292;2024-02-23T22:38:34;15.10;75.60
52611;DHT22;38727;40.130;18.292;2024-02-23T22:41:06;15.10;75.80
52611;DHT22;38727;40.130;18.292;2024-02-23T22:43:57;15.10;75.80
52611;DHT22;38727;40.130;18.292;2024-02-23T22:46:29;15.10;75.70
52611;DHT22;38727;40.130;18.292;2024-02-23T22:49:03;15.10;75.60
52611;DHT22;38727;40.130;18.292;2024-02-23T22:51:41;15.10;75.40
52611;DHT22;38727;40.130;18.292;2024-02-23T22:54:14;15.10;74.80
52611;DHT22;38727;40.130;18.292;2024-02-23T22:56:50;15.10;74.30
52611;DHT22;38727;40.130;18.292;2024-02-23T22:59:28;15.10;74.40
52611;DHT22;38727;40.130;18.292;2024-02-23T23:02:01;15.10;74.90
52611;DHT22;38727;40.130;18.292;2024-02-23T23:04:39;15.10;75.00
52611;DHT22;38727;40.130;18.292;2024-02-23T23:07:13;15.00;74.70
52611;DHT22;38727;40.130;18.292;2024-02-23T23:09:50;15.10;74.70
52611;DHT22;38727;40.130;18.292;2024-02-23T23:12:25;15.10;75.20
52611;DHT22;38727;40.130;18.292;2024-02-23T23:14:56;15.10;75.30
52611;DHT22;38727;40.130;18.292;2024-02-23T23:17:30;15.10;75.40
52611;DHT22;38727;40.130;18.292;2024-02-23T23:20:01;15.10;75.40
52611;DHT22;38727;40.130;18.292;2024-02-23T23:22:34;15.10;75.40
52611;DHT22;38727;40.130;18.292;2024-02-23T23:25:08;15.10;75.50
52611;DHT22;38727;40.130;18.292;2024-02-23T23:27:43;15.10;75.50
52611;DHT22;38727;40.130;18.292;2024-02-23T23:30:23;15.10;75.30
52611;DHT22;38727;40.130;18.292;2024-02-23T23:32:57;15.10;75.40
52611;DHT22;38727;40.130;18.292;2024-02-23T23:35:28;15.10;75.30
52611;DHT22;38727;40.130;18.292;2024-02-23T23:38:00;15.00;75.20
52611;DHT22;38727;40.130;18.292;2024-02-23T23:40:36;15.00;75.30
52611;DHT22;38727;40.130;18.292;2024-02-23T23:43:29;15.00;75.50
52611;DHT22;38727;40.130;18.292;2024-02-23T23:46:04;15.10;75.50
52611;DHT22;38727;40.130;18.292;2024-02-23T23:48:35;15.00;75.50
52611;DHT22;38727;40.130;18.292;2024-02-23T23:51:20;15.00;75.60
52611;DHT22;38727;40.130;18.292;2024-02-23T23:53:51;15.00;75.50
52611;DHT22;38727;40.130;18.292;2024-02-23T23:56:26;15.00;75.40
52611;DHT22;38727;40.130;18.292;2024-02-23T23:59:03;14.90;75.60
